MMHO/HMO METAR and TAF weather

Enter ICAO airport designator
Station Type Date Time Source
MMHO METAR 2024/05/28 23:40 UTC NOAA

MMHO 282340Z 23012KT 10SM SCT200 40/M09 A2987 RMK SLP107 57010 909 8/008 HZY


Station Type Date Time Source
MMHO Decoded METAR 2024/05/28 23:40 UTC NOAA

Hermosillo, Son., Mexico (MMHO) 29-04N 110-57W
May 28, 2024 - 07:40 PM EDT / 2024.05.28 2340 UTC
Wind: from the SW (230 degrees) at 14 MPH (12 KT):0
Visibility: 10 mile(s):0
Sky conditions: partly cloudy
Temperature: 104 F (40 C)
Dew Point: 15 F (-9 C)
Relative Humidity: 4%
Pressure (altimeter): 29.87 in. Hg (1011 hPa)
Pressure tendency: 0.03 inches (1.0 hPa) lower than three hours ago
ob: MMHO 282340Z 23012KT 10SM SCT200 40/M09 A2987 RMK SLP107 57010 909 8/008 HZY
cycle: 23

Station Type Date Time Source
MMHO TAF 2024/05/28 18:05 UTC NOAA